Time;durP1;ratioP1;P1;durP2;ratioP2;P2;SDS_P1;SDS_P2;PMS_P1;PMS_P2;Temp;Humidity;BMP_temperature;BMP_pressure;BME280_temperature;BME280_humidity;BME280_pressure;Samples;Min_cycle;Max_cycle;Signal;HPM_P1;HPM_P2
2023/01/17 00:01:07;;;;;;;1.38;1.00;;;5.10;99.90;;;;;;4118198;28;20517;-68
2023/01/17 00:03:08;;;;;;;1.58;1.02;;;5.10;99.90;;;;;;4127221;28;20093;-68
2023/01/17 00:09:55;;;;;;;1.40;1.08;;;5.00;99.90;;;;;;4116834;28;20767;-68
2023/01/17 00:11:57;;;;;;;3.10;1.30;;;5.00;99.90;;;;;;4114068;28;20066;-68
2023/01/17 00:13:59;;;;;;;2.23;1.07;;;5.00;99.90;;;;;;4114734;28;20109;-68
2023/01/17 00:16:00;;;;;;;1.00;0.90;;;5.00;99.90;;;;;;4113813;28;20101;-68
2023/01/17 00:18:00;;;;;;;1.42;0.93;;;4.90;99.90;;;;;;4115422;28;20047;-68
2023/01/17 01:34:41;;;;;;;2.42;1.13;;;4.60;99.90;;;;;;4112631;28;20030;-68
2023/01/17 01:36:41;;;;;;;5.43;1.10;;;4.50;99.90;;;;;;4111059;28;20170;-68
2023/01/17 01:38:42;;;;;;;4.30;1.13;;;4.50;99.90;;;;;;4111927;28;20039;-68
2023/01/17 01:40:45;;;;;;;2.95;0.70;;;4.50;99.90;;;;;;4112047;28;20043;-68
2023/01/17 01:42:58;;;;;;;2.20;0.70;;;4.50;99.90;;;;;;4112265;28;20031;-68
2023/01/17 01:44:58;;;;;;;2.75;0.52;;;4.50;99.90;;;;;;4113520;28;20097;-68
2023/01/17 01:47:00;;;;;;;4.05;0.80;;;4.50;99.90;;;;;;4121810;28;20689;-68
2023/01/17 01:49:04;;;;;;;4.70;0.52;;;4.50;99.90;;;;;;4112638;28;20050;-68
2023/01/17 01:51:14;;;;;;;5.78;0.57;;;4.50;99.90;;;;;;4111593;28;20110;-69
2023/01/17 01:53:16;;;;;;;1.00;0.55;;;4.50;99.90;;;;;;4116381;28;20125;-68
2023/01/17 01:55:21;;;;;;;1.70;0.60;;;4.40;99.90;;;;;;4111858;28;20035;-68
2023/01/17 01:57:28;;;;;;;0.40;0.30;;;4.40;99.90;;;;;;4110752;28;20034;-67
2023/01/17 01:59:29;;;;;;;2.65;0.60;;;4.40;99.90;;;;;;4112085;28;20061;-68
2023/01/17 02:01:30;;;;;;;0.95;0.28;;;4.40;99.90;;;;;;4123397;28;20030;-67
2023/01/17 02:03:32;;;;;;;2.38;0.63;;;4.30;99.90;;;;;;4111615;28;20035;-68
2023/01/17 02:05:34;;;;;;;1.30;0.30;;;4.30;99.90;;;;;;4124475;28;20030;-68
2023/01/17 02:07:41;;;;;;;1.13;0.40;;;4.20;99.90;;;;;;4106043;28;20049;-68
2023/01/17 02:09:42;;;;;;;1.20;0.20;;;4.10;99.90;;;;;;4111029;28;20062;-68
2023/01/17 02:11:44;;;;;;;1.67;0.28;;;4.00;99.90;;;;;;4108172;28;20482;-68
2023/01/17 02:13:45;;;;;;;;;;;4.10;99.90;;;;;;4111404;28;20030;-68
2023/01/17 02:16:13;;;;;;;0.65;0.35;;;4.00;99.90;;;;;;4103364;28;20101;-67
2023/01/17 02:18:57;;;;;;;0.57;0.13;;;4.00;99.90;;;;;;4107986;28;20125;-68
2023/01/17 02:21:21;;;;;;;1.05;0.35;;;4.10;99.90;;;;;;4096290;28;20521;-68
2023/01/17 02:23:34;;;;;;;1.05;0.35;;;4.10;99.90;;;;;;4108687;28;20042;-68
2023/01/17 02:25:48;;;;;;;0.77;0.38;;;3.90;99.90;;;;;;4102835;28;20045;-67
2023/01/17 02:28:24;;;;;;;1.00;0.22;;;3.90;99.90;;;;;;4101087;28;20043;-68
2023/01/17 02:30:55;;;;;;;0.20;0.17;;;3.80;99.90;;;;;;4104689;28;20426;-68
2023/01/17 02:33:08;;;;;;;0.30;0.15;;;3.80;99.90;;;;;;4094803;28;20066;-68
2023/01/17 02:35:28;;;;;;;0.43;0.20;;;3.80;99.90;;;;;;4108553;28;20391;-68
2023/01/17 02:37:47;;;;;;;0.20;0.10;;;3.80;99.90;;;;;;4102525;28;20038;-68
2023/01/17 02:39:58;;;;;;;1.73;0.38;;;3.80;99.90;;;;;;4110848;28;20389;-67
2023/01/17 02:42:11;;;;;;;0.98;0.20;;;3.70;99.90;;;;;;4112037;28;20066;-68
2023/01/17 02:44:17;;;;;;;0.75;0.30;;;3.70;99.90;;;;;;4105695;28;20046;-68
2023/01/17 02:46:18;;;;;;;0.20;0.15;;;3.70;99.90;;;;;;4104787;28;20067;-68
2023/01/17 02:48:23;;;;;;;0.82;0.30;;;3.70;99.90;;;;;;4104140;28;20069;-68
2023/01/17 02:50:28;;;;;;;2.67;0.20;;;3.70;99.90;;;;;;4110865;28;20093;-68
2023/01/17 02:52:35;;;;;;;0.22;0.10;;;3.80;99.90;;;;;;4103614;28;20047;-68
2023/01/17 02:55:06;;;;;;;0.55;0.22;;;3.80;99.90;;;;;;4110563;28;20085;-68
2023/01/17 02:57:31;;;;;;;0.30;0.10;;;3.80;99.90;;;;;;4108696;28;20031;-67
2023/01/17 03:00:02;;;;;;;0.38;0.10;;;3.80;99.90;;;;;;4117450;28;20378;-67
2023/01/17 03:02:15;;;;;;;1.45;0.17;;;3.80;99.90;;;;;;4111518;28;20493;-67
2023/01/17 03:04:25;;;;;;;0.52;0.40;;;3.80;99.90;;;;;;4113928;28;20054;-68
2023/01/17 03:06:35;;;;;;;0.85;0.30;;;3.80;99.90;;;;;;4111656;28;20094;-68
2023/01/17 03:08:37;;;;;;;1.83;0.40;;;3.70;99.90;;;;;;4099995;28;20070;-68
2023/01/17 03:10:40;;;;;;;0.55;0.20;;;3.70;99.90;;;;;;4102094;28;20035;-68
2023/01/17 03:12:41;;;;;;;1.55;0.50;;;3.70;99.90;;;;;;4110226;28;20042;-68
2023/01/17 03:14:42;;;;;;;0.65;0.32;;;3.70;99.90;;;;;;4125305;28;20042;-68
2023/01/17 03:16:43;;;;;;;2.60;0.70;;;3.80;99.90;;;;;;4105891;28;20037;-68
2023/01/17 03:18:43;;;;;;;2.10;0.43;;;3.90;99.90;;;;;;4108646;28;20068;-68
2023/01/17 03:20:44;;;;;;;0.80;0.38;;;3.90;99.90;;;;;;4111313;28;20041;-68
2023/01/17 03:22:45;;;;;;;0.47;0.47;;;3.90;99.90;;;;;;4110067;28;20410;-68
2023/01/17 03:24:45;;;;;;;2.08;0.60;;;3.90;99.90;;;;;;4109844;28;20047;-68
2023/01/17 03:26:46;;;;;;;1.10;0.40;;;3.90;99.90;;;;;;4110610;28;20042;-67
2023/01/17 03:28:47;;;;;;;0.80;0.43;;;3.90;99.90;;;;;;4094032;28;20062;-67
2023/01/17 03:30:47;;;;;;;1.02;0.57;;;3.90;99.90;;;;;;4101276;28;20039;-68
2023/01/17 03:32:49;;;;;;;1.23;0.60;;;4.00;99.90;;;;;;4108755;28;20114;-68
2023/01/17 03:34:49;;;;;;;1.05;0.40;;;4.00;99.90;;;;;;4112218;28;20027;-67
2023/01/17 03:36:50;;;;;;;0.73;0.50;;;4.00;99.90;;;;;;4110768;28;20035;-68
2023/01/17 03:38:50;;;;;;;3.55;0.50;;;4.00;99.90;;;;;;4099005;28;20043;-68
2023/01/17 03:40:51;;;;;;;5.50;1.02;;;4.00;99.90;;;;;;4106212;28;20038;-68
2023/01/17 03:42:52;;;;;;;0.95;0.52;;;4.10;99.90;;;;;;4110664;28;20474;-68
2023/01/17 03:44:52;;;;;;;0.80;0.75;;;4.00;99.90;;;;;;4112021;28;20125;-68
2023/01/17 03:46:53;;;;;;;3.60;0.88;;;4.00;99.90;;;;;;4113280;28;20046;-67
2023/01/17 03:48:53;;;;;;;1.38;0.55;;;4.00;99.90;;;;;;4102190;28;20383;-67
2023/01/17 03:50:54;;;;;;;2.17;0.85;;;4.10;99.90;;;;;;4103261;28;20106;-68
2023/01/17 03:52:55;;;;;;;7.00;1.85;;;4.00;99.90;;;;;;4111181;28;20025;-67
2023/01/17 03:54:55;;;;;;;1.50;1.20;;;4.00;99.90;;;;;;4114365;28;20034;-68
2023/01/17 03:56:56;;;;;;;3.25;1.30;;;4.00;99.90;;;;;;4114867;28;22634;-68
2023/01/17 03:58:57;;;;;;;4.63;2.20;;;4.00;99.90;;;;;;4114451;28;20043;-68
2023/01/17 04:00:57;;;;;;;4.80;1.77;;;4.00;99.90;;;;;;4113509;28;20377;-67
2023/01/17 04:02:58;;;;;;;6.20;2.22;;;4.10;99.90;;;;;;4114514;28;20039;-67
2023/01/17 04:04:59;;;;;;;3.45;1.98;;;4.00;99.90;;;;;;4113179;28;20057;-67
2023/01/17 04:06:59;;;;;;;2.42;1.45;;;4.00;99.90;;;;;;4114670;28;20796;-68
2023/01/17 04:09:00;;;;;;;5.32;1.60;;;4.00;99.90;;;;;;4111638;28;20383;-68
2023/01/17 04:11:00;;;;;;;4.57;1.60;;;4.00;99.90;;;;;;4113688;28;20067;-68
2023/01/17 04:13:01;;;;;;;6.55;1.80;;;4.00;99.90;;;;;;4114407;28;20039;-68
2023/01/17 04:15:02;;;;;;;3.30;1.13;;;4.00;99.90;;;;;;4113977;28;20122;-67
2023/01/17 04:17:02;;;;;;;2.38;1.23;;;4.00;99.90;;;;;;4111959;28;20031;-68
2023/01/17 04:19:03;;;;;;;4.78;1.30;;;4.00;99.90;;;;;;4112445;28;20046;-68
2023/01/17 04:21:04;;;;;;;3.92;1.20;;;4.00;99.90;;;;;;4118279;28;20038;-68
2023/01/17 04:23:05;;;;;;;1.77;1.02;;;3.90;99.90;;;;;;4105077;28;20049;-68
2023/01/17 04:25:06;;;;;;;1.75;1.00;;;3.90;99.90;;;;;;4118155;28;20482;-69
2023/01/17 04:27:07;;;;;;;3.38;1.10;;;3.90;99.90;;;;;;4112743;28;20038;-68
2023/01/17 04:29:08;;;;;;;5.93;1.27;;;4.00;99.90;;;;;;4114839;28;20046;-68
2023/01/17 04:31:14;;;;;;;2.20;1.45;;;3.90;99.90;;;;;;4117319;28;20088;-69
2023/01/17 04:33:15;;;;;;;4.68;1.70;;;3.90;99.90;;;;;;4118596;28;20038;-68
2023/01/17 04:35:15;;;;;;;1.92;0.98;;;3.90;99.90;;;;;;4119249;28;20118;-68
2023/01/17 04:37:16;;;;;;;2.03;0.90;;;4.00;99.90;;;;;;4116988;28;20041;-68
2023/01/17 04:39:17;;;;;;;3.50;1.33;;;3.90;99.90;;;;;;4110878;28;20476;-68
2023/01/17 04:41:17;;;;;;;2.42;1.15;;;3.90;99.90;;;;;;4114751;28;20440;-68
2023/01/17 04:43:18;;;;;;;2.42;1.00;;;3.80;99.90;;;;;;4120640;28;20045;-67
2023/01/17 04:45:18;;;;;;;1.92;1.10;;;3.80;99.90;;;;;;4117200;28;20039;-67
2023/01/17 04:47:19;;;;;;;8.57;1.25;;;3.70;99.90;;;;;;4112963;28;20035;-68
2023/01/17 04:49:20;;;;;;;1.80;1.10;;;3.70;99.90;;;;;;4115162;28;20450;-68
2023/01/17 04:51:21;;;;;;;1.67;1.10;;;3.70;99.90;;;;;;4096042;29;20027;-67
2023/01/17 04:53:21;;;;;;;2.42;1.10;;;3.70;99.90;;;;;;4101976;28;20047;-68
2023/01/17 04:55:22;;;;;;;4.68;1.30;;;3.70;99.90;;;;;;4114924;28;20039;-67
2023/01/17 04:57:24;;;;;;;2.00;1.08;;;3.60;99.90;;;;;;4116851;28;20035;-68
2023/01/17 04:59:24;;;;;;;1.70;1.17;;;3.70;99.90;;;;;;4114292;28;20050;-67
2023/01/17 05:01:25;;;;;;;1.35;1.00;;;3.60;99.90;;;;;;4116412;28;20090;-68
2023/01/17 05:03:25;;;;;;;3.05;1.50;;;3.60;99.90;;;;;;4114333;28;20048;-68
2023/01/17 05:05:26;;;;;;;2.67;1.10;;;3.70;99.90;;;;;;4112406;28;20030;-67
2023/01/17 05:07:27;;;;;;;3.00;1.10;;;3.60;99.90;;;;;;4108459;28;20035;-68
2023/01/17 05:09:27;;;;;;;2.10;1.25;;;3.70;99.90;;;;;;4111846;28;23223;-68
2023/01/17 05:11:28;;;;;;;2.08;1.42;;;3.60;99.90;;;;;;4115970;28;20085;-68
2023/01/17 05:13:28;;;;;;;3.95;1.33;;;3.70;99.90;;;;;;4113780;28;20059;-67
2023/01/17 05:15:30;;;;;;;3.42;1.30;;;3.70;99.90;;;;;;4113527;28;20084;-68
2023/01/17 05:17:30;;;;;;;2.50;1.80;;;3.70;99.90;;;;;;4115503;28;20390;-68
2023/01/17 05:19:31;;;;;;;4.00;2.30;;;3.70;99.90;;;;;;4100554;28;20039;-68
2023/01/17 05:21:31;;;;;;;4.10;1.73;;;3.70;99.90;;;;;;4115694;28;20299;-68
2023/01/17 05:23:32;;;;;;;5.68;1.70;;;3.60;99.90;;;;;;4116962;28;20030;-67
2023/01/17 05:25:33;;;;;;;2.33;1.63;;;3.60;99.90;;;;;;4116606;28;20045;-67
2023/01/17 05:27:33;;;;;;;7.75;1.92;;;3.60;99.90;;;;;;4109347;28;20038;-67
2023/01/17 05:29:34;;;;;;;2.42;1.70;;;3.60;99.90;;;;;;4117230;28;20050;-68
2023/01/17 05:31:35;;;;;;;2.92;1.67;;;3.50;99.90;;;;;;4112513;28;20039;-67
2023/01/17 05:33:35;;;;;;;3.65;1.90;;;3.50;99.90;;;;;;4108312;28;20124;-67
2023/01/17 05:35:37;;;;;;;2.78;1.80;;;3.60;99.90;;;;;;4114443;28;20110;-67
2023/01/17 05:37:37;;;;;;;3.05;1.98;;;3.60;99.90;;;;;;4108239;28;20036;-67
2023/01/17 05:39:38;;;;;;;3.17;2.33;;;3.60;99.90;;;;;;4112979;28;20089;-68
2023/01/17 05:41:38;;;;;;;4.70;2.45;;;3.50;99.90;;;;;;4115220;28;20038;-67
2023/01/17 05:43:39;;;;;;;4.18;3.00;;;3.60;99.90;;;;;;4115799;28;20031;-68
2023/01/17 05:45:42;;;;;;;4.47;2.42;;;3.60;99.90;;;;;;4110167;28;20070;-68
2023/01/17 05:47:48;;;;;;;5.93;2.95;;;3.60;99.90;;;;;;4093229;28;20034;-68
2023/01/17 05:49:49;;;;;;;6.82;3.53;;;3.60;99.90;;;;;;4088207;28;20043;-68
2023/01/17 05:51:50;;;;;;;7.43;3.50;;;3.60;99.90;;;;;;4096875;28;20045;-68
2023/01/17 05:53:50;;;;;;;9.85;3.67;;;3.50;99.90;;;;;;4083660;29;20042;-68
2023/01/17 05:55:51;;;;;;;9.98;4.30;;;3.40;99.90;;;;;;4110523;28;20062;-68
2023/01/17 05:57:52;;;;;;;7.93;4.30;;;3.50;99.90;;;;;;4105337;28;20035;-67
2023/01/17 05:59:53;;;;;;;8.40;3.97;;;3.50;99.90;;;;;;4120908;28;20545;-68
2023/01/17 06:01:53;;;;;;;6.13;4.50;;;3.40;99.90;;;;;;4110644;28;20044;-68
2023/01/17 06:03:54;;;;;;;6.75;4.30;;;3.40;99.90;;;;;;4110279;28;20503;-68
2023/01/17 06:05:54;;;;;;;7.18;4.13;;;3.30;99.90;;;;;;4103400;28;20050;-68
2023/01/17 06:07:55;;;;;;;6.45;4.55;;;3.40;99.90;;;;;;4114018;28;20049;-68
2023/01/17 06:09:56;;;;;;;7.95;4.00;;;3.40;99.90;;;;;;4093925;28;20036;-68
2023/01/17 06:11:56;;;;;;;6.03;4.22;;;3.40;99.90;;;;;;4112747;28;20093;-67
2023/01/17 06:13:57;;;;;;;8.35;4.28;;;3.40;99.90;;;;;;4113128;28;20030;-67
2023/01/17 06:16:01;;;;;;;7.50;4.65;;;3.40;99.90;;;;;;4109785;28;20037;-67
2023/01/17 06:18:06;;;;;;;7.75;5.00;;;3.50;99.90;;;;;;4110231;28;20050;-68
2023/01/17 06:20:08;;;;;;;11.27;5.28;;;3.40;99.90;;;;;;4108973;28;20041;-68
2023/01/17 06:22:09;;;;;;;7.57;4.88;;;3.40;99.90;;;;;;4105495;28;20059;-68
2023/01/17 06:24:09;;;;;;;8.40;5.07;;;3.50;99.90;;;;;;4091860;28;20047;-69
2023/01/17 06:26:10;;;;;;;8.98;5.07;;;3.50;99.90;;;;;;4107207;28;20043;-67
2023/01/17 06:28:17;;;;;;;10.30;5.13;;;3.50;99.90;;;;;;4106800;28;20426;-68
2023/01/17 06:30:17;;;;;;;10.20;5.22;;;3.50;99.90;;;;;;4105654;28;20074;-68
2023/01/17 06:32:18;;;;;;;7.93;5.15;;;3.60;99.90;;;;;;4107954;28;20051;-68
2023/01/17 06:34:19;;;;;;;8.25;5.65;;;3.60;99.90;;;;;;4109202;28;20039;-68
2023/01/17 06:36:19;;;;;;;7.55;5.75;;;3.60;99.90;;;;;;4105571;28;20122;-68
2023/01/17 06:38:20;;;;;;;7.97;5.68;;;3.60;99.90;;;;;;4107234;28;20053;-68
2023/01/17 06:40:21;;;;;;;10.10;6.45;;;3.60;99.90;;;;;;4106065;28;20050;-68
2023/01/17 06:42:22;;;;;;;9.18;6.35;;;3.60;99.90;;;;;;4110773;28;20035;-68
2023/01/17 06:44:22;;;;;;;9.23;6.78;;;3.60;99.90;;;;;;4094070;28;20442;-68
2023/01/17 06:46:24;;;;;;;12.32;8.20;;;3.60;99.90;;;;;;4105985;28;20053;-68
2023/01/17 06:48:25;;;;;;;15.17;9.23;;;3.60;99.90;;;;;;4105879;28;20043;-68
2023/01/17 06:50:26;;;;;;;13.23;8.13;;;3.60;99.90;;;;;;4107724;28;20050;-67
2023/01/17 06:52:26;;;;;;;11.77;8.75;;;3.70;99.90;;;;;;4107185;28;20466;-68
2023/01/17 06:54:27;;;;;;;17.35;10.45;;;3.60;99.90;;;;;;4106001;28;20085;-68
2023/01/17 06:56:32;;;;;;;16.02;10.25;;;3.60;99.90;;;;;;4101820;28;20058;-67
2023/01/17 06:58:33;;;;;;;19.05;10.98;;;3.60;99.90;;;;;;4102434;28;20544;-67
2023/01/17 07:00:34;;;;;;;16.98;10.65;;;3.70;99.90;;;;;;4102221;28;20062;-68
2023/01/17 07:02:35;;;;;;;17.08;10.52;;;3.60;99.90;;;;;;4107931;28;20533;-68
2023/01/17 07:04:35;;;;;;;16.83;11.45;;;3.70;99.90;;;;;;4096653;28;20040;-68
2023/01/17 07:06:36;;;;;;;20.60;11.10;;;3.60;99.90;;;;;;4097259;28;20062;-69
2023/01/17 07:08:36;;;;;;;19.05;12.20;;;3.60;99.90;;;;;;4100670;28;20053;-68
2023/01/17 07:10:37;;;;;;;18.20;11.88;;;3.60;99.90;;;;;;4093489;28;20063;-69
2023/01/17 07:12:38;;;;;;;21.42;12.00;;;3.60;99.90;;;;;;4098800;28;20129;-69
2023/01/17 07:14:38;;;;;;;19.02;11.77;;;3.60;99.90;;;;;;4099136;28;20043;-69
2023/01/17 07:16:39;;;;;;;21.77;12.85;;;3.60;99.90;;;;;;4097528;28;20532;-69
2023/01/17 07:18:40;;;;;;;18.90;11.85;;;3.50;99.90;;;;;;4094316;28;20031;-69
2023/01/17 07:20:42;;;;;;;15.38;10.75;;;3.50;99.90;;;;;;4100329;28;20037;-69
2023/01/17 07:22:44;;;;;;;14.50;11.05;;;3.50;99.90;;;;;;4101340;28;20414;-69
2023/01/17 07:24:44;;;;;;;18.92;12.15;;;3.50;99.90;;;;;;4082542;28;20053;-69
2023/01/17 07:26:49;;;;;;;17.40;11.23;;;3.50;99.90;;;;;;4097097;28;20043;-70
2023/01/17 07:28:50;;;;;;;20.48;10.30;;;3.50;99.90;;;;;;4105875;28;20050;-69
2023/01/17 07:30:50;;;;;;;15.38;10.40;;;3.50;99.90;;;;;;4104674;28;20054;-69
2023/01/17 07:32:53;;;;;;;20.40;12.05;;;3.50;99.90;;;;;;4100340;28;20043;-69
2023/01/17 07:34:56;;;;;;;16.48;10.95;;;3.50;99.90;;;;;;4102370;28;20755;-68
2023/01/17 07:36:56;;;;;;;13.60;10.30;;;3.50;99.90;;;;;;4092956;28;20041;-69
2023/01/17 07:38:57;;;;;;;14.57;10.00;;;3.50;99.90;;;;;;4100883;28;20110;-69
2023/01/17 07:40:58;;;;;;;14.02;9.77;;;3.40;99.90;;;;;;4105873;28;20043;-68
2023/01/17 07:43:11;;;;;;;14.48;9.45;;;3.40;99.90;;;;;;4107643;28;20117;-69
2023/01/17 07:45:13;;;;;;;15.20;9.45;;;3.40;99.90;;;;;;4096803;28;20553;-69
2023/01/17 07:47:14;;;;;;;15.48;9.48;;;3.40;99.90;;;;;;4099995;28;20035;-69
2023/01/17 07:49:15;;;;;;;13.18;8.43;;;3.30;99.90;;;;;;4095680;28;20047;-69
2023/01/17 07:51:16;;;;;;;12.43;7.32;;;3.40;99.90;;;;;;4088845;28;20419;-69
2023/01/17 07:53:17;;;;;;;13.00;7.88;;;3.40;99.90;;;;;;4107197;28;20043;-68
2023/01/17 07:55:18;;;;;;;17.58;7.60;;;3.40;99.90;;;;;;4099385;28;20572;-68
2023/01/17 07:57:18;;;;;;;12.88;8.18;;;3.40;99.90;;;;;;4096021;28;20043;-70
2023/01/17 07:59:19;;;;;;;10.50;7.03;;;3.50;99.90;;;;;;4097129;28;20086;-69
2023/01/17 08:01:19;;;;;;;12.35;7.57;;;3.50;99.90;;;;;;4098419;28;20375;-69
2023/01/17 08:03:20;;;;;;;10.88;7.22;;;3.50;99.90;;;;;;4097507;28;20035;-69
2023/01/17 08:05:21;;;;;;;15.32;7.68;;;3.50;99.90;;;;;;4112853;28;20051;-67
2023/01/17 08:07:21;;;;;;;11.90;7.20;;;3.50;99.90;;;;;;4111478;28;20049;-68
2023/01/17 08:09:22;;;;;;;12.50;7.00;;;3.50;99.90;;;;;;4111181;28;20082;-69
2023/01/17 08:11:22;;;;;;;10.93;6.15;;;3.50;99.90;;;;;;4120353;28;20164;-68
2023/01/17 08:13:23;;;;;;;11.20;7.22;;;3.50;99.90;;;;;;4122399;28;20074;-68
2023/01/17 08:15:25;;;;;;;10.73;6.57;;;3.50;99.90;;;;;;4119108;28;20035;-68
2023/01/17 08:17:27;;;;;;;12.73;7.18;;;3.50;99.90;;;;;;4119226;28;20049;-68
2023/01/17 08:19:27;;;;;;;13.50;7.47;;;3.50;99.90;;;;;;4120938;28;20054;-69
2023/01/17 08:21:28;;;;;;;11.07;7.03;;;3.50;99.90;;;;;;4122127;28;20653;-69
2023/01/17 08:23:30;;;;;;;10.48;6.57;;;3.60;99.90;;;;;;4110749;28;20043;-69
2023/01/17 08:25:32;;;;;;;11.38;7.07;;;3.60;99.90;;;;;;4115116;28;20045;-69
2023/01/17 08:27:33;;;;;;;11.93;6.85;;;3.60;99.90;;;;;;4123017;28;20061;-69
2023/01/17 08:29:34;;;;;;;12.23;7.20;;;3.60;99.90;;;;;;4100803;28;20042;-69
2023/01/17 08:31:35;;;;;;;11.80;7.15;;;3.70;99.90;;;;;;4120955;28;20197;-69
2023/01/17 08:33:36;;;;;;;11.25;7.85;;;3.70;99.90;;;;;;4110638;28;20041;-69
2023/01/17 08:35:36;;;;;;;12.18;7.28;;;3.80;99.90;;;;;;4109773;28;20134;-69
2023/01/17 08:37:37;;;;;;;14.63;7.90;;;3.80;99.90;;;;;;4129801;28;20092;-69
2023/01/17 08:39:38;;;;;;;12.30;7.68;;;3.90;99.90;;;;;;4129746;28;20080;-69
2023/01/17 08:41:39;;;;;;;10.98;7.35;;;3.90;99.90;;;;;;4121520;28;20031;-69
2023/01/17 08:43:39;;;;;;;12.48;7.95;;;3.90;99.90;;;;;;4117944;28;20049;-68
2023/01/17 08:45:42;;;;;;;13.35;8.43;;;3.90;99.90;;;;;;4109480;28;20047;-69
2023/01/17 08:47:43;;;;;;;14.48;8.00;;;4.00;99.90;;;;;;4119966;28;20567;-69
2023/01/17 08:49:43;;;;;;;11.95;7.88;;;4.10;99.90;;;;;;4116496;28;20142;-69
2023/01/17 08:51:44;;;;;;;13.93;8.07;;;4.20;99.90;;;;;;4114427;28;20454;-69
2023/01/17 08:53:45;;;;;;;11.10;7.57;;;4.30;99.90;;;;;;4121470;28;20038;-69
2023/01/17 08:55:45;;;;;;;11.95;7.45;;;4.40;99.90;;;;;;4117637;28;20034;-69
2023/01/17 08:57:46;;;;;;;11.65;7.65;;;4.40;99.90;;;;;;4119765;28;20509;-69
2023/01/17 08:59:47;;;;;;;12.30;7.40;;;4.40;99.90;;;;;;4110244;28;20085;-69
2023/01/17 09:01:47;;;;;;;12.43;7.50;;;4.50;99.90;;;;;;4110994;28;20073;-69
2023/01/17 09:03:50;;;;;;;15.02;8.15;;;4.40;99.90;;;;;;4116980;28;20511;-69
2023/01/17 09:06:12;;;;;;;11.80;7.57;;;4.30;99.90;;;;;;4114258;28;20086;-69
2023/01/17 09:08:12;;;;;;;13.88;7.75;;;4.20;99.90;;;;;;4119249;28;20405;-69
2023/01/17 09:10:13;;;;;;;13.23;8.00;;;4.30;99.90;;;;;;4110986;28;20038;-69
2023/01/17 09:12:14;;;;;;;15.15;8.30;;;4.30;99.90;;;;;;4102694;28;20542;-69
2023/01/17 09:14:14;;;;;;;14.32;7.72;;;4.30;99.90;;;;;;4111792;28;20088;-69
2023/01/17 09:16:15;;;;;;;13.52;8.90;;;4.40;99.90;;;;;;4116471;28;20392;-69
2023/01/17 09:18:15;;;;;;;14.70;8.00;;;4.60;99.90;;;;;;4115222;28;20406;-69
2023/01/17 09:20:16;;;;;;;13.43;8.00;;;4.70;99.90;;;;;;4114764;28;20050;-69
2023/01/17 09:22:17;;;;;;;14.57;7.93;;;5.00;99.90;;;;;;4118126;28;20458;-69
2023/01/17 09:24:17;;;;;;;12.40;7.05;;;5.20;99.90;;;;;;4118659;28;20055;-69
2023/01/17 09:26:29;;;;;;;14.63;7.00;;;5.30;99.90;;;;;;4115486;28;20436;-69
2023/01/17 09:28:30;;;;;;;12.57;7.55;;;5.50;99.90;;;;;;4109482;28;20145;-69
2023/01/17 09:30:30;;;;;;;12.52;7.57;;;5.80;99.90;;;;;;4116462;28;20478;-69
2023/01/17 09:32:31;;;;;;;13.90;7.10;;;6.10;99.90;;;;;;4117073;28;20389;-69
2023/01/17 09:34:31;;;;;;;11.43;6.55;;;6.20;99.90;;;;;;4117051;28;20042;-69
2023/01/17 09:36:32;;;;;;;12.18;6.82;;;6.40;99.90;;;;;;4110254;28;20126;-69
2023/01/17 09:38:33;;;;;;;11.60;7.30;;;6.60;99.90;;;;;;4112268;28;20397;-69
2023/01/17 09:40:37;;;;;;;10.10;6.43;;;6.70;99.90;;;;;;4113217;28;20070;-70
2023/01/17 09:42:39;;;;;;;10.85;6.68;;;6.90;99.90;;;;;;4110813;28;20038;-70
2023/01/17 09:44:44;;;;;;;11.43;6.68;;;6.90;99.90;;;;;;4110299;28;20487;-70
2023/01/17 09:46:47;;;;;;;10.23;6.43;;;7.10;99.90;;;;;;4107773;28;20114;-70
2023/01/17 09:48:52;;;;;;;10.18;6.68;;;7.10;99.90;;;;;;4115541;28;20453;-70
2023/01/17 09:51:01;;;;;;;14.32;7.65;;;7.00;99.90;;;;;;4113386;28;20188;-69
2023/01/17 09:53:05;;;;;;;11.90;7.20;;;6.90;99.90;;;;;;4114514;28;20041;-69
2023/01/17 09:55:15;;;;;;;11.93;6.53;;;6.90;99.90;;;;;;4106863;28;20391;-71
2023/01/17 09:58:00;;;;;;;10.75;6.15;;;6.90;99.90;;;;;;4112099;28;20047;-69
2023/01/17 10:00:33;;;;;;;12.60;6.97;;;6.90;99.90;;;;;;4099123;28;20041;-69
2023/01/17 10:03:19;;;;;;;14.38;6.43;;;6.80;99.90;;;;;;4113981;28;20057;-68
2023/01/17 10:05:43;;;;;;;12.32;6.95;;;6.70;99.90;;;;;;4117477;28;20035;-69
2023/01/17 10:08:27;;;;;;;12.40;6.57;;;6.70;99.90;;;;;;4117437;28;20466;-69
2023/01/17 10:11:14;;;;;;;11.10;6.65;;;6.70;99.90;;;;;;4027971;29;20069;-70
2023/01/17 10:13:38;;;;;;;11.40;7.07;;;6.60;99.90;;;;;;4093256;28;20046;-69
2023/01/17 10:16:20;;;;;;;13.80;7.00;;;6.60;99.90;;;;;;4115335;28;20049;-69
2023/01/17 10:18:42;;;;;;;13.35;7.20;;;6.50;99.90;;;;;;4072108;29;20050;-70
2023/01/17 10:20:55;;;;;;;13.55;6.47;;;6.50;99.90;;;;;;4071082;29;20047;-69
2023/01/17 10:23:20;;;;;;;15.77;7.30;;;6.50;99.90;;;;;;4079203;28;20403;-69
2023/01/17 10:25:21;;;;;;;14.68;6.55;;;6.40;99.90;;;;;;4106258;28;20340;-69
2023/01/17 10:27:31;;;;;;;12.63;6.03;;;6.40;99.90;;;;;;4116111;28;20045;-68
2023/01/17 10:29:34;;;;;;;10.00;6.00;;;6.30;99.90;;;;;;4113395;28;20076;-68
2023/01/17 10:31:44;;;;;;;10.20;6.18;;;6.40;99.90;;;;;;4104878;28;20046;-68
2023/01/17 10:33:52;;;;;;;11.50;5.90;;;6.40;99.90;;;;;;4103220;28;20392;-69
2023/01/17 10:35:59;;;;;;;8.95;5.70;;;6.40;99.90;;;;;;4100292;28;20035;-69
2023/01/17 10:38:06;;;;;;;11.73;6.90;;;6.30;99.90;;;;;;4111531;28;20030;-69
2023/01/17 10:40:39;;;;;;;11.13;7.30;;;6.30;99.90;;;;;;4118826;28;20114;-70
2023/01/17 10:42:53;;;;;;;13.50;6.82;;;6.30;99.90;;;;;;4106903;28;20054;-68
2023/01/17 10:45:15;;;;;;;11.27;6.05;;;6.30;99.90;;;;;;4106989;28;20082;-68
2023/01/17 10:47:21;;;;;;;11.50;6.35;;;6.20;99.90;;;;;;4097977;28;20070;-68
2023/01/17 10:49:25;;;;;;;12.35;6.15;;;6.30;99.90;;;;;;4102342;28;20106;-69
2023/01/17 10:51:58;;;;;;;15.02;6.55;;;6.20;99.90;;;;;;4103180;28;20041;-68
2023/01/17 10:54:24;;;;;;;8.27;5.13;;;6.10;99.90;;;;;;4106244;28;20510;-68
2023/01/17 10:56:28;;;;;;;8.82;5.68;;;6.20;99.90;;;;;;4111203;28;20283;-68
2023/01/17 10:58:30;;;;;;;9.73;5.63;;;6.20;99.90;;;;;;4105413;28;20043;-68
2023/01/17 11:00:43;;;;;;;15.85;5.95;;;6.20;99.90;;;;;;4115387;28;20717;-68
2023/01/17 11:02:49;;;;;;;12.32;5.53;;;6.10;99.90;;;;;;4120860;28;20046;-68
2023/01/17 11:04:53;;;;;;;11.45;6.15;;;6.10;99.90;;;;;;4107565;28;20137;-68
2023/01/17 11:07:18;;;;;;;10.77;5.93;;;6.10;99.90;;;;;;4117449;28;20038;-68
2023/01/17 11:09:19;;;;;;;9.50;5.40;;;6.10;99.90;;;;;;4114943;28;20490;-68
2023/01/17 11:11:23;;;;;;;10.27;5.75;;;6.10;99.90;;;;;;4116625;28;20053;-68
2023/01/17 11:13:29;;;;;;;10.40;5.80;;;6.10;99.90;;;;;;4113239;28;20046;-68
2023/01/17 11:15:33;;;;;;;13.75;6.50;;;6.10;99.90;;;;;;4116948;28;20053;-68
2023/01/17 11:18:01;;;;;;;13.57;5.32;;;6.10;99.90;;;;;;4119473;28;20232;-68
2023/01/17 11:20:11;;;;;;;11.15;5.32;;;6.10;99.90;;;;;;4109534;28;20034;-67
2023/01/17 11:22:14;;;;;;;14.35;6.13;;;6.10;99.90;;;;;;4112432;28;20046;-67
2023/01/17 11:24:23;;;;;;;10.23;4.97;;;6.10;99.90;;;;;;4116513;28;20128;-68
2023/01/17 11:26:29;;;;;;;10.80;5.15;;;6.10;99.90;;;;;;4111432;28;20092;-68
2023/01/17 11:28:31;;;;;;;12.93;5.47;;;6.10;99.90;;;;;;4120967;28;20050;-67
2023/01/17 11:30:32;;;;;;;10.07;5.57;;;6.10;99.90;;;;;;4113386;28;20031;-67
2023/01/17 11:32:34;;;;;;;10.27;5.35;;;6.10;99.90;;;;;;4116099;28;20031;-67
2023/01/17 11:34:35;;;;;;;8.70;4.90;;;6.20;99.90;;;;;;4113078;28;20042;-68
2023/01/17 11:36:35;;;;;;;9.73;5.43;;;6.20;99.90;;;;;;4116480;28;20096;-67
2023/01/17 11:38:36;;;;;;;7.50;4.97;;;6.20;99.90;;;;;;4106928;28;20047;-68
2023/01/17 11:40:41;;;;;;;10.40;5.05;;;6.30;99.90;;;;;;4109653;28;20043;-67
2023/01/17 11:42:41;;;;;;;6.72;4.03;;;6.30;99.90;;;;;;4116837;28;20050;-67
2023/01/17 11:44:42;;;;;;;7.78;4.75;;;6.40;99.90;;;;;;4113787;28;20631;-68
2023/01/17 11:46:43;;;;;;;9.05;4.82;;;6.40;99.90;;;;;;4110587;28;20125;-68
2023/01/17 11:48:50;;;;;;;10.73;5.55;;;6.40;99.90;;;;;;4119358;28;20065;-68
2023/01/17 11:50:58;;;;;;;8.93;5.53;;;6.40;99.90;;;;;;4114503;28;20045;-68
2023/01/17 11:53:15;;;;;;;9.75;5.20;;;6.40;99.90;;;;;;4114228;28;20035;-68
2023/01/17 11:55:16;;;;;;;7.80;4.82;;;6.50;99.90;;;;;;4116852;28;20126;-67
2023/01/17 11:57:34;;;;;;;9.63;4.40;;;6.50;99.90;;;;;;4103915;28;20177;-67
2023/01/17 11:59:41;;;;;;;8.55;4.25;;;6.50;99.90;;;;;;4112826;28;20038;-67
2023/01/17 12:02:00;;;;;;;8.85;3.88;;;6.60;99.90;;;;;;4113438;28;20042;-67
2023/01/17 12:04:18;;;;;;;7.47;3.97;;;6.60;99.90;;;;;;4114622;28;20374;-67
2023/01/17 12:06:40;;;;;;;7.35;4.43;;;6.60;99.90;;;;;;4116343;28;20054;-68
2023/01/17 12:09:21;;;;;;;13.02;4.93;;;6.60;99.90;;;;;;4111328;28;20750;-68
2023/01/17 12:11:36;;;;;;;9.55;4.80;;;6.60;99.90;;;;;;4098869;28;20755;-67
2023/01/17 12:14:01;;;;;;;7.80;4.53;;;6.60;99.90;;;;;;4122192;28;20483;-68
2023/01/17 12:16:32;;;;;;;7.65;4.47;;;6.60;99.90;;;;;;4122439;28;20470;-68